Nogal, New Mexico
Current Conditions -  °F | °C
As of 1:58 AM on Wednesday 22 Oct 2014 (Local Time) from KHMN Reporting Station
Scattered Clouds Scattered Clouds  
Wind Chill: 54°   Ceiling: Unl
Heat Index: 54°   Visibility: 10mi
Dew Point: 51°   Wind: 5mph
Humidity: 90%   Direction: 10°N
Pressure: 30.08"   Gusts: NA
Location:  33.56°N, 105.71°W
Report Text: KHMN 220758Z AUTO 01004KT 10SM SCT049 12/11 A3008 RMK AO2 SLP139 T01210105 $
Loading
Personal Weather Stations






























Interactive Weather Map
Tropical Storm Tracking
New forecast layout! Learn more

10-Day Weather Forecast

Advertisements
Track Severe Weather on mobile